Time;durP1;ratioP1;P1;durP2;ratioP2;P2;SDS_P1;SDS_P2;PMS_P1;PMS_P2;Temp;Humidity;BMP_temperature;BMP_pressure;BME280_temperature;BME280_humidity;BME280_pressure;Samples;Min_cycle;Max_cycle;Signal;HPM_P1;HPM_P2
2022/06/06 00:01:13;;;;;;;7.27;6.67;;;22.60;68.10;;;;;;5013438;28;20772;-52
2022/06/06 00:03:41;;;;;;;6.80;6.20;;;22.60;68.10;;;;;;5013975;28;20486;-54
2022/06/06 00:06:17;;;;;;;8.40;6.63;;;22.80;68.40;;;;;;5013965;28;20439;-53
2022/06/06 00:08:44;;;;;;;7.00;6.40;;;22.50;68.10;;;;;;5013702;28;20432;-53
2022/06/06 00:11:11;;;;;;;6.87;6.27;;;22.60;68.30;;;;;;5013584;28;20453;-52
2022/06/06 00:13:39;;;;;;;7.20;6.50;;;22.80;68.50;;;;;;5013893;28;20920;-52
2022/06/06 00:16:06;;;;;;;6.37;5.77;;;22.80;68.70;;;;;;5013943;28;20842;-51
2022/06/06 00:18:34;;;;;;;8.00;7.20;;;22.90;68.80;;;;;;5013472;28;20802;-52
2022/06/06 00:21:00;;;;;;;8.00;7.30;;;22.80;68.70;;;;;;5013775;28;20855;-52
2022/06/06 00:23:28;;;;;;;6.60;6.00;;;22.80;68.70;;;;;;5013538;28;20477;-53
2022/06/06 00:25:57;;;;;;;7.10;5.90;;;22.50;68.50;;;;;;5013706;28;20935;-52
2022/06/06 00:28:24;;;;;;;7.93;7.10;;;22.40;68.50;;;;;;5013486;28;20797;-54
2022/06/06 00:30:56;;;;;;;7.07;6.47;;;22.90;69.10;;;;;;5013907;28;20466;-53
2022/06/06 00:36:07;;;;;;;6.83;6.10;;;22.40;68.70;;;;;;5013569;28;20440;-53
2022/06/06 00:38:35;;;;;;;6.10;5.60;;;22.60;68.90;;;;;;5013104;28;20464;-52
2022/06/06 00:41:01;;;;;;;6.53;5.93;;;22.50;68.90;;;;;;5013470;28;20457;-53
2022/06/06 00:43:28;;;;;;;7.23;6.47;;;22.70;69.20;;;;;;5013399;28;20845;-52
2022/06/06 00:45:57;;;;;;;7.63;7.00;;;22.50;69.00;;;;;;5013392;28;20436;-52
2022/06/06 00:48:27;;;;;;;6.53;5.93;;;22.70;69.40;;;;;;5013045;28;20449;-52
2022/06/06 00:50:58;;;;;;;6.73;6.13;;;22.70;69.50;;;;;;5013297;28;20821;-52
2022/06/06 00:53:33;;;;;;;8.20;6.70;;;22.60;69.40;;;;;;5013446;28;20434;-53
2022/06/06 00:56:09;;;;;;;8.50;6.50;;;22.80;70.10;;;;;;5013402;28;20440;-52
2022/06/06 00:58:40;;;;;;;6.90;6.30;;;22.70;71.40;;;;;;5012819;28;20436;-52
2022/06/06 01:01:06;;;;;;;7.60;6.90;;;22.70;72.70;;;;;;5011793;28;20466;-51
2022/06/06 01:03:36;;;;;;;7.97;7.17;;;22.70;73.00;;;;;;5012968;28;20479;-51
2022/06/06 01:06:05;;;;;;;8.50;7.70;;;22.60;73.90;;;;;;5012935;28;20434;-51
2022/06/06 01:08:32;;;;;;;7.97;7.27;;;22.70;75.80;;;;;;5012750;28;20437;-52
2022/06/06 01:10:59;;;;;;;8.93;7.97;;;22.60;78.40;;;;;;5012841;28;20457;-51
2022/06/06 01:13:27;;;;;;;7.90;7.30;;;22.30;80.30;;;;;;5012919;28;20437;-51
2022/06/06 01:16:19;;;;;;;8.63;7.83;;;22.50;82.10;;;;;;5012646;28;20520;-51
2022/06/06 01:18:56;;;;;;;9.00;8.20;;;22.10;83.60;;;;;;5012462;28;20457;-50
2022/06/06 01:21:47;;;;;;;9.40;8.50;;;22.20;84.10;;;;;;5012747;28;20482;-51
2022/06/06 01:24:30;;;;;;;9.80;8.37;;;21.80;86.10;;;;;;5012183;28;20857;-51
2022/06/06 01:27:13;;;;;;;8.60;7.90;;;22.10;86.80;;;;;;5013027;28;20425;-51
2022/06/06 01:29:47;;;;;;;11.80;8.70;;;22.10;88.20;;;;;;5012261;28;20501;-51
2022/06/06 01:32:19;;;;;;;9.50;8.60;;;22.10;89.90;;;;;;5012423;28;20476;-51
2022/06/06 01:34:48;;;;;;;9.23;8.53;;;21.90;90.00;;;;;;5012444;28;20450;-51
2022/06/06 01:37:30;;;;;;;8.77;8.00;;;21.70;89.30;;;;;;5012524;28;20526;-51
2022/06/06 01:39:59;;;;;;;8.40;7.70;;;21.80;88.90;;;;;;5011905;28;20459;-51
2022/06/06 01:42:34;;;;;;;9.87;9.07;;;22.10;88.80;;;;;;5012404;28;20459;-51
2022/06/06 01:45:12;;;;;;;9.63;8.63;;;21.90;89.10;;;;;;5012345;28;20741;-51
2022/06/06 01:47:43;;;;;;;10.07;8.97;;;22.00;88.80;;;;;;5012221;28;20438;-51
2022/06/06 01:50:11;;;;;;;16.40;14.83;;;21.60;89.40;;;;;;5011796;28;20948;-51
2022/06/06 01:52:52;;;;;;;10.10;9.30;;;21.90;89.90;;;;;;5012244;28;20433;-51
2022/06/06 01:55:19;;;;;;;11.13;10.20;;;21.80;90.40;;;;;;5012094;28;20436;-51
2022/06/06 01:57:48;;;;;;;8.43;7.83;;;22.00;90.90;;;;;;5012077;28;20777;-51
2022/06/06 02:00:17;;;;;;;9.90;8.90;;;21.80;90.50;;;;;;5011602;28;20457;-51
2022/06/06 02:02:44;;;;;;;9.23;8.43;;;21.90;90.30;;;;;;5011754;28;20474;-51
2022/06/06 02:05:12;;;;;;;10.13;9.33;;;21.80;90.50;;;;;;5011976;28;20986;-52
2022/06/06 02:07:38;;;;;;;11.30;10.40;;;21.50;91.10;;;;;;5012030;28;20466;-51
2022/06/06 02:10:09;;;;;;;11.33;10.33;;;21.50;91.60;;;;;;5011555;28;20451;-51
2022/06/06 02:12:36;;;;;;;10.03;9.23;;;22.00;92.70;;;;;;5012043;28;20536;-50
2022/06/06 02:15:04;;;;;;;11.87;10.77;;;21.60;93.40;;;;;;5011839;28;20442;-51
2022/06/06 02:17:32;;;;;;;10.87;9.87;;;21.70;93.70;;;;;;5011686;28;20862;-52
2022/06/06 02:19:59;;;;;;;11.30;10.40;;;21.60;94.20;;;;;;5011420;28;20459;-51
2022/06/06 02:22:25;;;;;;;11.50;10.53;;;21.50;94.90;;;;;;5011713;28;20443;-51
2022/06/06 02:24:52;;;;;;;11.20;10.17;;;21.30;96.00;;;;;;5010369;28;20461;-51
2022/06/06 02:27:19;;;;;;;11.60;10.40;;;21.40;96.20;;;;;;5011937;28;20452;-51
2022/06/06 02:29:45;;;;;;;11.90;10.80;;;21.30;96.60;;;;;;5011226;28;20464;-51
2022/06/06 02:32:12;;;;;;;10.80;10.00;;;21.50;97.00;;;;;;5011546;28;20510;-51
2022/06/06 02:34:40;;;;;;;12.60;11.50;;;21.10;96.80;;;;;;5014075;28;20435;-51
2022/06/06 02:37:07;;;;;;;12.40;11.50;;;21.30;97.50;;;;;;5015701;28;20442;-51
2022/06/06 02:39:34;;;;;;;12.17;11.03;;;21.10;98.00;;;;;;5015356;28;20440;-51
2022/06/06 02:42:00;;;;;;;10.83;9.93;;;21.00;98.70;;;;;;5015697;28;20838;-51
2022/06/06 02:44:27;;;;;;;12.27;11.10;;;21.00;99.60;;;;;;5015572;28;20983;-51
2022/06/06 02:46:54;;;;;;;12.73;11.53;;;21.10;99.80;;;;;;5015643;28;20443;-51
2022/06/06 02:49:20;;;;;;;12.50;11.40;;;21.10;99.90;;;;;;5015222;28;20497;-50
2022/06/06 02:51:48;;;;;;;12.87;11.80;;;21.10;99.90;;;;;;5015504;28;20435;-51
2022/06/06 02:54:15;;;;;;;12.20;11.20;;;21.30;99.90;;;;;;5015614;28;20435;-51
2022/06/06 02:56:41;;;;;;;13.13;12.10;;;20.70;99.90;;;;;;5015380;28;20434;-51
2022/06/06 02:59:09;;;;;;;11.50;10.60;;;20.90;99.90;;;;;;5015396;28;20436;-51
2022/06/06 03:01:36;;;;;;;11.83;10.80;;;21.00;99.90;;;;;;5015133;28;20469;-51
2022/06/06 03:04:03;;;;;;;12.23;11.23;;;21.00;99.90;;;;;;5015406;28;20529;-51
2022/06/06 03:06:40;;;;;;;11.70;10.80;;;21.20;99.80;;;;;;5015111;28;20439;-51
2022/06/06 03:09:22;;;;;;;11.30;10.40;;;21.10;99.70;;;;;;5014988;28;20439;-51
2022/06/06 03:12:03;;;;;;;13.63;12.37;;;21.00;99.50;;;;;;5015303;28;20434;-51
2022/06/06 03:14:42;;;;;;;12.53;11.60;;;21.00;99.80;;;;;;5015242;28;20431;-51
2022/06/06 03:23:47;;;;;;;12.93;11.93;;;21.00;99.90;;;;;;5014866;28;20553;-51
2022/06/06 03:26:20;;;;;;;14.53;13.27;;;21.00;99.90;;;;;;5015021;28;20934;-51
2022/06/06 03:29:10;;;;;;;13.37;12.33;;;20.80;99.90;;;;;;5014728;28;20441;-51
2022/06/06 03:31:46;;;;;;;14.80;13.50;;;20.90;99.90;;;;;;5014716;28;20492;-51
2022/06/06 03:34:21;;;;;;;13.83;12.63;;;21.00;99.90;;;;;;5014725;28;20773;-52
2022/06/06 03:36:54;;;;;;;15.53;14.13;;;20.80;99.90;;;;;;5015252;28;20791;-51
2022/06/06 03:39:28;;;;;;;14.73;13.63;;;20.70;99.90;;;;;;5014395;28;20442;-52
2022/06/06 03:42:06;;;;;;;15.07;13.73;;;20.70;99.90;;;;;;5014615;28;20438;-51
2022/06/06 03:44:56;;;;;;;16.50;14.90;;;20.50;99.90;;;;;;5014533;28;20486;-51
2022/06/06 03:47:34;;;;;;;18.67;16.67;;;20.90;99.90;;;;;;5014082;28;20442;-51
2022/06/06 03:50:10;;;;;;;20.23;18.10;;;20.70;99.90;;;;;;5014599;28;20962;-52
2022/06/06 03:52:45;;;;;;;17.27;15.67;;;20.80;99.90;;;;;;5014752;28;20529;-51
2022/06/06 03:55:24;;;;;;;16.37;14.87;;;20.60;99.90;;;;;;5014440;28;20778;-51
2022/06/06 03:57:56;;;;;;;19.27;17.13;;;20.70;99.90;;;;;;5014384;28;20433;-52
2022/06/06 04:00:24;;;;;;;19.97;15.60;;;20.60;99.90;;;;;;5013799;28;20541;-51
2022/06/06 04:02:53;;;;;;;17.67;15.90;;;20.50;99.90;;;;;;5014142;28;20430;-51
2022/06/06 04:05:22;;;;;;;18.80;16.87;;;20.50;99.90;;;;;;5014168;28;20947;-51
2022/06/06 04:07:49;;;;;;;16.53;15.13;;;20.50;99.90;;;;;;5014302;28;20809;-51
2022/06/06 04:10:16;;;;;;;17.43;15.97;;;20.60;99.90;;;;;;5013685;28;20460;-51
2022/06/06 04:13:07;;;;;;;17.00;15.40;;;20.50;99.90;;;;;;5013958;28;20437;-51
2022/06/06 04:15:49;;;;;;;17.30;15.70;;;20.50;99.90;;;;;;5013881;28;20434;-52
2022/06/06 04:18:28;;;;;;;18.33;16.53;;;20.70;99.90;;;;;;5013970;28;20796;-51
2022/06/06 04:21:02;;;;;;;16.20;14.90;;;20.40;99.90;;;;;;5013769;28;20454;-51
2022/06/06 04:23:42;;;;;;;18.27;16.50;;;20.30;99.90;;;;;;5013709;28;20501;-51
2022/06/06 04:26:14;;;;;;;16.10;14.63;;;20.40;99.90;;;;;;5013778;28;20442;-51
2022/06/06 04:28:53;;;;;;;16.50;14.90;;;20.60;99.90;;;;;;5013563;28;20449;-52
2022/06/06 04:31:29;;;;;;;16.90;15.10;;;20.10;99.90;;;;;;5013427;28;20473;-52
2022/06/06 04:34:04;;;;;;;15.67;14.27;;;20.30;99.90;;;;;;5013688;28;20441;-51
2022/06/06 04:36:34;;;;;;;15.53;14.23;;;20.20;99.90;;;;;;5013626;28;20490;-51
2022/06/06 04:39:09;;;;;;;14.03;12.83;;;20.40;99.90;;;;;;5013325;28;20451;-51
2022/06/06 04:41:42;;;;;;;16.20;14.90;;;20.40;99.90;;;;;;5013429;28;20969;-52
2022/06/06 04:44:19;;;;;;;15.00;13.60;;;20.40;99.90;;;;;;5013482;28;20477;-51
2022/06/06 04:46:50;;;;;;;15.60;14.30;;;20.40;99.90;;;;;;5013529;28;20831;-52
2022/06/06 04:49:17;;;;;;;16.53;15.10;;;20.40;99.90;;;;;;5013691;28;20429;-51
2022/06/06 04:51:45;;;;;;;15.33;14.00;;;20.40;99.90;;;;;;5013518;28;20450;-52
2022/06/06 04:54:16;;;;;;;15.47;14.10;;;20.20;99.90;;;;;;5013632;28;20512;-52
2022/06/06 04:56:44;;;;;;;14.77;13.27;;;20.30;99.90;;;;;;5012928;28;20435;-51
2022/06/06 04:59:14;;;;;;;16.63;15.03;;;20.40;99.90;;;;;;5012400;28;20465;-52
2022/06/06 05:01:42;;;;;;;15.93;14.63;;;20.10;99.90;;;;;;5013498;28;20963;-52
2022/06/06 05:04:09;;;;;;;15.93;14.53;;;19.90;99.90;;;;;;5013557;28;20845;-52
2022/06/06 05:07:00;;;;;;;15.40;14.00;;;20.30;99.90;;;;;;5013179;28;20449;-51
2022/06/06 05:09:45;;;;;;;16.73;15.43;;;20.50;99.90;;;;;;5012674;28;20449;-51
2022/06/06 05:12:27;;;;;;;16.70;15.00;;;20.30;99.90;;;;;;5013028;28;20938;-52
2022/06/06 05:15:10;;;;;;;16.20;14.93;;;20.30;99.90;;;;;;5012977;28;20431;-51
2022/06/06 05:17:53;;;;;;;17.00;15.60;;;20.30;99.90;;;;;;5012746;28;20437;-51
2022/06/06 05:20:44;;;;;;;15.60;14.10;;;20.40;99.90;;;;;;5012153;28;20460;-51
2022/06/06 05:23:35;;;;;;;16.80;15.40;;;20.40;99.90;;;;;;5012637;28;20453;-51
2022/06/06 05:26:19;;;;;;;14.23;12.93;;;20.80;99.90;;;;;;5012761;28;20442;-51
2022/06/06 05:29:07;;;;;;;14.30;13.20;;;20.50;99.90;;;;;;5013048;28;20456;-51
2022/06/06 05:31:49;;;;;;;15.40;14.00;;;20.50;99.90;;;;;;5012481;28;20501;-51
2022/06/06 05:34:19;;;;;;;14.57;13.37;;;20.50;99.90;;;;;;5012526;28;20577;-51
2022/06/06 05:37:05;;;;;;;13.43;12.33;;;20.20;99.90;;;;;;5012756;28;20435;-51
2022/06/06 05:40:02;;;;;;;14.07;12.57;;;20.40;99.90;;;;;;5012115;28;20957;-51
2022/06/06 05:42:44;;;;;;;13.10;12.07;;;20.60;99.90;;;;;;5012300;28;20443;-52
2022/06/06 05:45:23;;;;;;;13.30;12.20;;;20.60;99.90;;;;;;5012244;28;20482;-51
2022/06/06 05:48:05;;;;;;;13.40;12.30;;;20.80;99.90;;;;;;5012292;28;20464;-51
2022/06/06 05:50:44;;;;;;;12.40;11.30;;;21.00;99.90;;;;;;5012039;28;20482;-51
2022/06/06 05:53:55;;;;;;;11.70;10.80;;;20.50;99.90;;;;;;5012083;28;20454;-51
2022/06/06 05:56:52;;;;;;;11.57;10.57;;;21.20;99.90;;;;;;5012207;28;20446;-51
2022/06/06 05:59:36;;;;;;;11.23;10.23;;;21.20;99.90;;;;;;4958565;28;20501;-50
2022/06/06 06:02:24;;;;;;;12.37;11.30;;;21.40;99.90;;;;;;5011936;28;20435;-51
2022/06/06 06:05:08;;;;;;;11.87;10.87;;;21.30;99.90;;;;;;5011842;28;21005;-51
2022/06/06 06:07:43;;;;;;;10.47;9.67;;;21.40;99.90;;;;;;5011978;28;20787;-51
2022/06/06 06:10:15;;;;;;;10.73;9.83;;;21.50;99.90;;;;;;5011194;28;20461;-51
2022/06/06 06:12:59;;;;;;;10.43;9.50;;;21.80;99.90;;;;;;5011979;28;20432;-51
2022/06/06 06:15:33;;;;;;;10.67;9.87;;;21.50;99.90;;;;;;5011792;28;20446;-51
2022/06/06 06:18:02;;;;;;;11.87;10.70;;;22.30;99.90;;;;;;5011710;28;20440;-51
2022/06/06 06:20:37;;;;;;;10.53;9.63;;;22.00;99.90;;;;;;5011659;28;20471;-51
2022/06/06 06:23:06;;;;;;;8.97;8.27;;;22.50;99.90;;;;;;5011773;28;20448;-51
2022/06/06 06:25:34;;;;;;;10.03;9.17;;;22.60;99.90;;;;;;5011498;28;20515;-51
2022/06/06 06:28:05;;;;;;;10.40;9.50;;;22.70;99.90;;;;;;5011468;28;20440;-51
2022/06/06 06:30:40;;;;;;;9.70;8.90;;;22.80;99.90;;;;;;5011598;28;20477;-51
2022/06/06 06:33:26;;;;;;;10.03;9.07;;;23.00;99.90;;;;;;5010326;28;20447;-51
2022/06/06 06:36:04;;;;;;;9.93;9.13;;;23.10;99.90;;;;;;5011580;28;20437;-51
2022/06/06 06:38:58;;;;;;;9.77;8.77;;;22.90;99.90;;;;;;5011262;28;20753;-51
2022/06/06 06:41:34;;;;;;;9.23;8.43;;;23.00;99.90;;;;;;5011502;28;20456;-51
2022/06/06 06:44:05;;;;;;;9.03;8.13;;;23.00;99.90;;;;;;5011369;28;20434;-51
2022/06/06 06:46:39;;;;;;;8.83;8.13;;;22.80;99.90;;;;;;5011333;28;20433;-51
2022/06/06 06:49:17;;;;;;;8.80;8.10;;;22.80;99.90;;;;;;5011135;28;20445;-51
2022/06/06 06:51:56;;;;;;;9.37;8.57;;;22.50;99.90;;;;;;5011365;28;20856;-51
2022/06/06 06:54:38;;;;;;;9.13;8.00;;;22.90;99.90;;;;;;5011386;28;20465;-51
2022/06/06 06:57:20;;;;;;;8.57;7.77;;;22.80;99.90;;;;;;5011378;28;20528;-51
2022/06/06 06:59:59;;;;;;;9.80;7.87;;;23.00;99.90;;;;;;5010947;28;20477;-51
2022/06/06 07:08:35;;;;;;;7.30;6.70;;;22.80;99.90;;;;;;5011222;28;20806;-51
2022/06/06 07:11:15;;;;;;;7.40;6.80;;;23.20;99.90;;;;;;5011285;28;20461;-51
2022/06/06 07:13:55;;;;;;;7.33;6.57;;;22.90;99.90;;;;;;5011286;28;20440;-51
2022/06/06 07:16:25;;;;;;;7.80;7.10;;;22.90;99.90;;;;;;5011169;28;20934;-51
2022/06/06 07:18:58;;;;;;;7.43;6.80;;;22.80;99.90;;;;;;5010906;28;20426;-51
2022/06/06 07:21:26;;;;;;;8.00;7.30;;;22.70;99.90;;;;;;5012874;28;20458;-51
2022/06/06 07:23:58;;;;;;;7.50;6.90;;;22.50;99.90;;;;;;5014606;28;20429;-51
2022/06/06 07:26:26;;;;;;;8.60;7.70;;;22.60;99.90;;;;;;5014795;28;20433;-51
2022/06/06 07:28:53;;;;;;;9.13;8.33;;;22.70;99.90;;;;;;5014517;28;20487;-51
2022/06/06 07:31:27;;;;;;;8.77;8.00;;;22.80;99.90;;;;;;5014508;28;20999;-50
2022/06/06 07:34:20;;;;;;;8.40;7.40;;;22.90;99.90;;;;;;5014745;28;20433;-51
2022/06/06 07:36:58;;;;;;;7.40;6.70;;;22.80;99.90;;;;;;5014687;28;20434;-51
2022/06/06 07:39:37;;;;;;;7.07;6.40;;;22.80;99.90;;;;;;5014044;28;20450;-51
2022/06/06 07:42:24;;;;;;;8.73;7.30;;;22.80;99.90;;;;;;5014203;28;20439;-51
2022/06/06 07:45:09;;;;;;;8.27;7.47;;;22.80;99.90;;;;;;5014082;28;20483;-51
2022/06/06 07:47:51;;;;;;;7.70;7.00;;;22.80;99.90;;;;;;5013942;28;20480;-51
2022/06/06 07:50:23;;;;;;;7.57;6.77;;;22.90;99.90;;;;;;5013939;28;20781;-50
2022/06/06 07:52:55;;;;;;;7.17;6.57;;;23.00;99.90;;;;;;5014243;28;20429;-51
2022/06/06 07:55:27;;;;;;;6.60;6.00;;;23.00;99.80;;;;;;5014276;28;20433;-51
2022/06/06 07:58:00;;;;;;;7.67;6.77;;;23.10;99.70;;;;;;5014285;28;20437;-51
2022/06/06 08:00:28;;;;;;;7.60;6.70;;;23.20;99.40;;;;;;5013585;28;20803;-51
2022/06/06 08:03:00;;;;;;;6.70;5.93;;;22.90;99.20;;;;;;5014283;28;20504;-51
2022/06/06 08:05:53;;;;;;;8.03;6.53;;;23.20;98.90;;;;;;5012663;28;20820;-51
2022/06/06 08:08:28;;;;;;;5.83;5.33;;;23.20;98.10;;;;;;5013954;28;20485;-51
2022/06/06 08:11:02;;;;;;;7.60;5.60;;;23.10;98.00;;;;;;5013810;28;20465;-51
2022/06/06 08:13:32;;;;;;;6.40;5.80;;;23.00;97.80;;;;;;5013577;28;20433;-51
2022/06/06 08:16:16;;;;;;;6.03;5.37;;;22.90;97.60;;;;;;5013649;28;20440;-50
2022/06/06 08:19:09;;;;;;;6.37;5.57;;;22.80;97.20;;;;;;5013436;28;20461;-51
2022/06/06 08:21:39;;;;;;;5.57;5.07;;;23.30;97.00;;;;;;5013602;28;20460;-51
2022/06/06 08:24:08;;;;;;;7.07;6.37;;;23.40;97.30;;;;;;5013435;28;20533;-50
2022/06/06 08:26:40;;;;;;;6.30;5.77;;;23.40;97.30;;;;;;5013117;28;20539;-51
2022/06/06 08:29:09;;;;;;;5.83;5.27;;;23.40;97.00;;;;;;5013122;28;20426;-51
2022/06/06 08:31:36;;;;;;;7.13;5.57;;;23.60;97.00;;;;;;5012868;28;20485;-51
2022/06/06 08:34:04;;;;;;;7.40;5.00;;;23.60;96.60;;;;;;5013464;28;20434;-51
2022/06/06 08:36:58;;;;;;;7.40;5.50;;;23.70;96.10;;;;;;5013357;28;20440;-52
2022/06/06 08:39:39;;;;;;;5.33;4.87;;;23.90;95.70;;;;;;5012813;28;20450;-51
2022/06/06 08:42:32;;;;;;;5.40;5.00;;;24.00;95.80;;;;;;5013090;28;20795;-51
2022/06/06 08:45:20;;;;;;;6.10;5.50;;;24.00;95.60;;;;;;5013401;28;20483;-51
2022/06/06 08:47:59;;;;;;;5.47;4.87;;;24.20;95.50;;;;;;5012889;28;20439;-51
2022/06/06 08:50:45;;;;;;;5.60;5.10;;;24.10;94.30;;;;;;5012929;28;20464;-51
2022/06/06 08:53:48;;;;;;;5.07;4.57;;;24.10;94.20;;;;;;5012964;28;20748;-50
2022/06/06 08:56:37;;;;;;;6.60;4.50;;;24.10;93.60;;;;;;5012686;28;20784;-52
2022/06/06 08:59:41;;;;;;;4.80;4.40;;;24.10;93.00;;;;;;5012340;28;20439;-52
2022/06/06 09:02:54;;;;;;;5.43;4.97;;;24.10;92.80;;;;;;5012567;28;20480;-52
2022/06/06 09:05:54;;;;;;;8.77;4.77;;;24.10;93.00;;;;;;5012125;28;20492;-52
2022/06/06 09:09:01;;;;;;;7.20;4.70;;;24.10;92.80;;;;;;5012840;28;20432;-51
2022/06/06 09:11:53;;;;;;;6.07;4.60;;;24.20;92.80;;;;;;5007094;28;20472;-52
2022/06/06 09:14:54;;;;;;;6.03;3.90;;;24.10;92.30;;;;;;5012783;28;20440;-52
2022/06/06 09:17:50;;;;;;;5.30;4.80;;;24.50;92.40;;;;;;5012556;28;20435;-52
2022/06/06 09:20:47;;;;;;;7.43;4.17;;;24.50;92.10;;;;;;5012094;28;20452;-53
2022/06/06 09:23:40;;;;;;;5.70;4.70;;;24.60;91.70;;;;;;5011913;28;20519;-52
2022/06/06 09:26:21;;;;;;;5.50;4.90;;;24.70;91.70;;;;;;5012154;28;20483;-52
2022/06/06 09:29:14;;;;;;;5.80;4.80;;;24.70;91.60;;;;;;5012092;28;20440;-52
2022/06/06 09:32:25;;;;;;;4.20;3.90;;;24.80;90.90;;;;;;5011954;28;20484;-53
2022/06/06 09:35:20;;;;;;;4.60;4.20;;;24.90;90.60;;;;;;4954826;28;20519;-52
2022/06/06 09:38:03;;;;;;;4.60;4.00;;;25.00;90.30;;;;;;5012163;28;20428;-52
2022/06/06 09:40:35;;;;;;;5.40;4.80;;;25.10;90.20;;;;;;5011872;28;20467;-52
2022/06/06 09:43:14;;;;;;;4.97;4.47;;;25.10;90.40;;;;;;5012105;28;20764;-52
2022/06/06 09:46:17;;;;;;;5.13;4.63;;;25.20;89.80;;;;;;5011945;28;21034;-52
2022/06/06 09:49:31;;;;;;;4.50;4.10;;;25.20;89.80;;;;;;4994628;28;20459;-52
2022/06/06 09:52:34;;;;;;;4.60;4.20;;;25.20;88.20;;;;;;5012055;28;20455;-52
2022/06/06 10:01:44;;;;;;;4.57;3.87;;;25.60;88.20;;;;;;5003261;28;20527;-52
2022/06/06 10:04:54;;;;;;;4.40;4.00;;;25.50;88.00;;;;;;5011904;28;20474;-52
2022/06/06 10:07:59;;;;;;;5.90;4.70;;;26.00;87.10;;;;;;5011971;28;20794;-52
2022/06/06 10:11:01;;;;;;;5.43;4.70;;;25.90;85.90;;;;;;4977640;28;20480;-52
2022/06/06 10:13:43;;;;;;;5.93;4.70;;;26.10;85.00;;;;;;5001829;28;20533;-52
2022/06/06 10:16:27;;;;;;;5.23;4.73;;;26.10;84.90;;;;;;5009906;28;20432;-52
2022/06/06 10:19:07;;;;;;;5.60;3.80;;;26.10;84.40;;;;;;5009768;28;20456;-52
2022/06/06 10:21:59;;;;;;;5.37;4.87;;;26.10;84.10;;;;;;5011513;28;20459;-52
2022/06/06 10:24:53;;;;;;;6.00;4.60;;;26.20;83.50;;;;;;5006436;28;20816;-53
2022/06/06 10:27:31;;;;;;;4.77;4.07;;;26.30;83.70;;;;;;5011240;28;20443;-52
2022/06/06 10:30:12;;;;;;;4.23;3.83;;;26.40;83.20;;;;;;5011038;28;20456;-52
2022/06/06 10:32:57;;;;;;;4.10;3.67;;;26.60;83.10;;;;;;5011440;28;20438;-52
2022/06/06 10:35:34;;;;;;;4.77;4.37;;;26.60;81.80;;;;;;5011647;28;20429;-52
2022/06/06 10:38:19;;;;;;;4.40;4.00;;;26.70;82.30;;;;;;5011181;28;20550;-52
2022/06/06 10:41:03;;;;;;;4.53;4.13;;;26.90;81.30;;;;;;5009118;28;20479;-53
2022/06/06 10:43:56;;;;;;;4.70;4.20;;;26.90;80.60;;;;;;5011641;28;20792;-52
2022/06/06 10:46:26;;;;;;;7.40;4.10;;;26.70;80.30;;;;;;5010743;28;20472;-52
2022/06/06 10:49:14;;;;;;;4.33;3.57;;;26.70;80.90;;;;;;5010677;28;20856;-53
2022/06/06 10:52:25;;;;;;;5.23;4.20;;;26.70;80.70;;;;;;5011030;28;20466;-52
2022/06/06 10:55:26;;;;;;;5.77;4.30;;;26.70;80.00;;;;;;4970409;28;20445;-53
2022/06/06 10:58:29;;;;;;;4.60;4.20;;;26.70;81.20;;;;;;4973500;28;20810;-52
2022/06/06 11:01:38;;;;;;;4.77;4.10;;;26.70;80.50;;;;;;4973335;28;20462;-53
2022/06/06 11:04:44;;;;;;;3.93;3.63;;;26.60;81.20;;;;;;4958992;28;20465;-53
2022/06/06 11:07:38;;;;;;;4.50;4.10;;;26.60;80.00;;;;;;4972943;28;20604;-52
2022/06/06 11:10:46;;;;;;;4.43;4.03;;;26.50;80.10;;;;;;4972848;28;20550;-52
2022/06/06 11:13:38;;;;;;;4.10;3.47;;;26.50;80.10;;;;;;4965247;28;20490;-53
2022/06/06 11:16:38;;;;;;;7.17;4.60;;;26.50;80.40;;;;;;4973023;28;20947;-53
2022/06/06 11:19:36;;;;;;;3.60;3.30;;;26.50;79.60;;;;;;4972417;28;20496;-52
2022/06/06 11:22:25;;;;;;;3.70;3.40;;;26.20;78.80;;;;;;4956761;28;20502;-52
2022/06/06 11:25:01;;;;;;;4.53;3.97;;;26.30;79.60;;;;;;4976905;28;20568;-52
2022/06/06 11:27:48;;;;;;;5.83;4.13;;;26.20;80.00;;;;;;5012447;28;20483;-52
2022/06/06 11:30:27;;;;;;;4.80;4.30;;;26.20;80.20;;;;;;5013613;28;20984;-52
2022/06/06 11:33:29;;;;;;;4.83;4.43;;;26.20;80.30;;;;;;5017185;28;20420;-51
2022/06/06 11:36:20;;;;;;;7.13;4.77;;;26.20;79.90;;;;;;5014559;28;20772;-54
2022/06/06 11:39:16;;;;;;;3.80;3.50;;;26.20;79.30;;;;;;5013779;28;20433;-54
2022/06/06 11:42:05;;;;;;;3.53;3.23;;;26.30;77.50;;;;;;5014502;28;20452;-53
2022/06/06 11:45:06;;;;;;;4.10;3.70;;;26.40;78.20;;;;;;5014273;28;20433;-54
2022/06/06 11:47:45;;;;;;;3.77;3.33;;;26.50;76.60;;;;;;5007265;28;20557;-54
2022/06/06 11:50:57;;;;;;;4.37;3.67;;;26.60;77.00;;;;;;5012363;28;20503;-53
2022/06/06 11:53:55;;;;;;;5.07;3.70;;;26.70;76.30;;;;;;5014033;28;20440;-54
2022/06/06 11:57:02;;;;;;;3.90;3.60;;;26.90;76.90;;;;;;5014184;28;20902;-54
2022/06/06 12:00:12;;;;;;;4.70;3.60;;;27.10;76.60;;;;;;5013446;28;20444;-54
2022/06/06 12:03:11;;;;;;;3.70;3.30;;;27.40;75.70;;;;;;5013114;28;20523;-54
2022/06/06 12:06:21;;;;;;;5.00;3.50;;;27.50;74.30;;;;;;5013484;28;20993;-52
2022/06/06 12:09:06;;;;;;;3.40;3.10;;;27.50;72.40;;;;;;5013210;28;20851;-53
2022/06/06 12:12:18;;;;;;;4.27;3.87;;;27.40;72.60;;;;;;5012915;28;20508;-52
2022/06/06 12:15:23;;;;;;;3.93;3.30;;;27.50;72.50;;;;;;5013048;28;20455;-53
2022/06/06 12:18:12;;;;;;;3.37;3.07;;;27.50;72.70;;;;;;5008399;28;20463;-53
2022/06/06 12:20:54;;;;;;;3.83;3.40;;;27.50;72.50;;;;;;5012709;28;20457;-53
2022/06/06 12:23:29;;;;;;;3.97;3.10;;;27.60;72.10;;;;;;5012763;28;20738;-54
2022/06/06 12:26:15;;;;;;;3.47;3.13;;;27.70;71.60;;;;;;5012803;28;20479;-53
2022/06/06 12:29:29;;;;;;;6.10;3.67;;;27.80;71.00;;;;;;5012625;28;20436;-53
2022/06/06 12:32:25;;;;;;;4.27;3.37;;;27.90;70.80;;;;;;5013189;28;20449;-52
2022/06/06 12:35:03;;;;;;;3.73;3.43;;;27.90;70.40;;;;;;5012989;28;20425;-52
2022/06/06 12:37:39;;;;;;;4.30;3.60;;;27.80;70.50;;;;;;5013047;28;20482;-51
2022/06/06 12:40:13;;;;;;;3.70;3.40;;;27.80;70.60;;;;;;5012331;28;20459;-52
2022/06/06 12:42:52;;;;;;;3.83;3.40;;;27.60;70.70;;;;;;5012469;28;20437;-51
2022/06/06 12:45:38;;;;;;;4.23;3.20;;;27.50;71.30;;;;;;5013079;28;20436;-52
2022/06/06 12:48:26;;;;;;;4.80;4.40;;;27.40;71.60;;;;;;5012496;28;20859;-52
2022/06/06 12:51:01;;;;;;;4.70;4.30;;;27.30;75.70;;;;;;5003949;28;20483;-52
2022/06/06 12:54:04;;;;;;;4.07;3.67;;;27.00;77.90;;;;;;5012737;28;20436;-52
2022/06/06 12:56:44;;;;;;;7.13;4.20;;;27.10;80.70;;;;;;5012354;28;21044;-52
2022/06/06 12:59:28;;;;;;;5.80;4.43;;;27.00;81.80;;;;;;5012265;28;20444;-52
2022/06/06 13:02:09;;;;;;;4.80;3.80;;;27.20;84.20;;;;;;5012178;28;20447;-52
2022/06/06 13:04:50;;;;;;;4.97;4.30;;;27.30;84.50;;;;;;5012155;28;20441;-51
2022/06/06 13:07:31;;;;;;;6.07;5.07;;;27.40;84.30;;;;;;5012446;28;20476;-51
2022/06/06 13:10:15;;;;;;;4.37;3.70;;;27.50;84.40;;;;;;5011719;28;20976;-51
2022/06/06 13:13:04;;;;;;;6.67;5.50;;;27.40;81.80;;;;;;5013832;28;20454;-54
2022/06/06 13:15:34;;;;;;;5.70;3.77;;;27.60;80.20;;;;;;5013048;28;20440;-53
2022/06/06 13:18:21;;;;;;;4.43;3.47;;;27.70;79.60;;;;;;5012336;28;20428;-54
2022/06/06 13:20:57;;;;;;;4.27;3.83;;;27.70;78.00;;;;;;5013711;28;20858;-53
2022/06/06 13:23:58;;;;;;;4.63;4.23;;;28.00;77.40;;;;;;5015794;28;20447;-51
2022/06/06 13:26:43;;;;;;;3.43;3.13;;;28.10;76.20;;;;;;5011577;28;20476;-51
2022/06/06 13:29:25;;;;;;;4.13;3.73;;;28.10;75.00;;;;;;5011353;28;20425;-52
2022/06/06 13:32:07;;;;;;;3.40;3.10;;;28.00;73.60;;;;;;5011566;28;20537;-51
2022/06/06 13:34:44;;;;;;;3.53;3.23;;;27.80;72.60;;;;;;5011923;28;20432;-51
2022/06/06 13:37:22;;;;;;;3.93;3.63;;;27.70;72.20;;;;;;5011891;28;20436;-51
2022/06/06 13:40:26;;;;;;;6.20;4.40;;;27.60;72.80;;;;;;5011289;28;20456;-51
2022/06/06 13:43:13;;;;;;;4.03;3.63;;;27.40;72.20;;;;;;5012436;28;20933;-52
2022/06/06 13:45:48;;;;;;;3.77;3.40;;;27.40;71.70;;;;;;5012083;28;20440;-52
2022/06/06 13:48:46;;;;;;;3.70;3.30;;;27.30;71.00;;;;;;5011952;28;20423;-51
2022/06/06 13:51:26;;;;;;;3.13;2.83;;;27.20;71.20;;;;;;5012047;28;21027;-51
2022/06/06 13:54:01;;;;;;;3.73;3.43;;;27.20;71.20;;;;;;5012169;28;20447;-51
2022/06/06 13:56:51;;;;;;;3.90;3.50;;;27.20;71.10;;;;;;5011860;28;20447;-51
2022/06/06 13:59:38;;;;;;;5.13;3.03;;;27.20;70.50;;;;;;5011481;28;20921;-51
2022/06/06 14:02:21;;;;;;;4.17;3.33;;;27.20;70.40;;;;;;5012244;28;20456;-51
2022/06/06 14:05:10;;;;;;;2.93;2.63;;;27.20;69.80;;;;;;5011956;28;20432;-51
2022/06/06 14:08:06;;;;;;;5.50;3.53;;;27.40;69.90;;;;;;5011239;28;20494;-51
2022/06/06 14:10:41;;;;;;;4.07;3.70;;;27.50;69.90;;;;;;5011520;28;20458;-51